sensor_id;sensor_type;location;lat;lon;timestamp;pressure;altitude;pressure_sealevel;temperature;humidity
53889;BME280;41337;51.400;-2.342;2023-09-12T00:04:57;101040.84;;;19.15;84.63
53889;BME280;41337;51.400;-2.342;2023-09-12T00:09:58;101045.16;;;19.16;85.03
53889;BME280;41337;51.400;-2.342;2023-09-12T00:15:19;101045.09;;;19.23;84.58
53889;BME280;41337;51.400;-2.342;2023-09-12T00:20:44;101042.84;;;19.26;84.38
53889;BME280;41337;51.400;-2.342;2023-09-12T00:25:48;101045.34;;;19.21;85.51
53889;BME280;41337;51.400;-2.342;2023-09-12T00:30:51;101040.41;;;19.18;85.46
53889;BME280;41337;51.400;-2.342;2023-09-12T00:36:02;101043.25;;;19.23;85.50
53889;BME280;41337;51.400;-2.342;2023-09-12T00:41:03;101037.16;;;19.16;85.83
53889;BME280;41337;51.400;-2.342;2023-09-12T00:46:19;101030.91;;;19.04;86.48
53889;BME280;41337;51.400;-2.342;2023-09-12T00:51:39;101042.13;;;19.12;85.70
53889;BME280;41337;51.400;-2.342;2023-09-12T00:56:46;101035.97;;;19.12;85.89
53889;BME280;41337;51.400;-2.342;2023-09-12T01:01:47;101041.09;;;19.13;85.34
53889;BME280;41337;51.400;-2.342;2023-09-12T01:06:52;101031.38;;;19.19;85.16
53889;BME280;41337;51.400;-2.342;2023-09-12T01:11:57;101025.13;;;19.07;85.76
53889;BME280;41337;51.400;-2.342;2023-09-12T01:17:20;101031.91;;;19.03;85.66
53889;BME280;41337;51.400;-2.342;2023-09-12T01:28:09;101021.06;;;18.98;85.59
53889;BME280;41337;51.400;-2.342;2023-09-12T01:33:30;101029.31;;;18.96;85.70
53889;BME280;41337;51.400;-2.342;2023-09-12T01:38:40;101027.06;;;18.93;86.36
53889;BME280;41337;51.400;-2.342;2023-09-12T01:43:53;101011.50;;;18.90;86.17
53889;BME280;41337;51.400;-2.342;2023-09-12T01:49:00;101009.84;;;18.89;86.70
53889;BME280;41337;51.400;-2.342;2023-09-12T01:54:03;101010.28;;;18.86;86.28
53889;BME280;41337;51.400;-2.342;2023-09-12T01:59:06;101003.69;;;18.89;86.88
53889;BME280;41337;51.400;-2.342;2023-09-12T02:04:28;101013.97;;;18.92;86.38
53889;BME280;41337;51.400;-2.342;2023-09-12T02:09:48;101010.25;;;18.93;85.83
53889;BME280;41337;51.400;-2.342;2023-09-12T02:14:58;101014.81;;;18.86;86.11
53889;BME280;41337;51.400;-2.342;2023-09-12T02:20:08;101006.22;;;18.84;86.58
53889;BME280;41337;51.400;-2.342;2023-09-12T02:25:11;101005.16;;;18.85;86.10
53889;BME280;41337;51.400;-2.342;2023-09-12T02:30:11;101006.22;;;18.84;86.12
53889;BME280;41337;51.400;-2.342;2023-09-12T02:35:31;101006.59;;;18.87;86.32
53889;BME280;41337;51.400;-2.342;2023-09-12T02:40:36;101004.97;;;18.86;85.68
53889;BME280;41337;51.400;-2.342;2023-09-12T02:46:02;101008.28;;;18.82;86.67
53889;BME280;41337;51.400;-2.342;2023-09-12T02:51:05;101009.53;;;18.79;86.46
53889;BME280;41337;51.400;-2.342;2023-09-12T02:56:07;101006.63;;;18.81;86.98
53889;BME280;41337;51.400;-2.342;2023-09-12T03:01:26;101009.91;;;18.83;86.47
53889;BME280;41337;51.400;-2.342;2023-09-12T03:06:29;101010.38;;;18.73;86.65
53889;BME280;41337;51.400;-2.342;2023-09-12T03:11:56;101018.84;;;18.63;87.07
53889;BME280;41337;51.400;-2.342;2023-09-12T03:17:02;101014.38;;;18.57;87.41
53889;BME280;41337;51.400;-2.342;2023-09-12T03:22:08;101008.25;;;18.57;86.96
53889;BME280;41337;51.400;-2.342;2023-09-12T03:27:17;101002.91;;;18.50;87.42
53889;BME280;41337;51.400;-2.342;2023-09-12T03:32:24;100996.97;;;18.48;87.00
53889;BME280;41337;51.400;-2.342;2023-09-12T03:37:27;100986.56;;;18.40;87.53
53889;BME280;41337;51.400;-2.342;2023-09-12T03:42:34;100989.69;;;18.37;87.94
53889;BME280;41337;51.400;-2.342;2023-09-12T03:47:36;100988.44;;;18.33;88.57
53889;BME280;41337;51.400;-2.342;2023-09-12T03:52:39;100990.31;;;18.33;88.73
53889;BME280;41337;51.400;-2.342;2023-09-12T03:57:41;100989.25;;;18.34;88.41
53889;BME280;41337;51.400;-2.342;2023-09-12T04:02:42;100982.34;;;18.26;89.10
53889;BME280;41337;51.400;-2.342;2023-09-12T04:07:44;100983.97;;;18.27;88.72
53889;BME280;41337;51.400;-2.342;2023-09-12T04:12:46;100985.25;;;18.18;89.01
53889;BME280;41337;51.400;-2.342;2023-09-12T04:17:49;100989.16;;;18.15;89.46
53889;BME280;41337;51.400;-2.342;2023-09-12T04:23:00;100982.38;;;18.19;89.06
53889;BME280;41337;51.400;-2.342;2023-09-12T04:28:03;100973.13;;;18.22;89.80
53889;BME280;41337;51.400;-2.342;2023-09-12T04:33:05;100972.56;;;18.20;89.52
53889;BME280;41337;51.400;-2.342;2023-09-12T04:38:07;100972.94;;;18.17;90.10
53889;BME280;41337;51.400;-2.342;2023-09-12T04:43:09;100972.56;;;18.13;90.30
53889;BME280;41337;51.400;-2.342;2023-09-12T04:48:15;100966.59;;;18.18;89.60
53889;BME280;41337;51.400;-2.342;2023-09-12T04:53:21;100961.91;;;18.13;90.05
53889;BME280;41337;51.400;-2.342;2023-09-12T04:58:25;100964.56;;;18.13;90.62
53889;BME280;41337;51.400;-2.342;2023-09-12T05:03:31;100971.34;;;18.16;90.25
53889;BME280;41337;51.400;-2.342;2023-09-12T05:08:35;100966.41;;;18.19;90.48
53889;BME280;41337;51.400;-2.342;2023-09-12T05:13:51;100962.66;;;18.27;89.77
53889;BME280;41337;51.400;-2.342;2023-09-12T05:18:56;100968.59;;;18.29;89.93
53889;BME280;41337;51.400;-2.342;2023-09-12T05:23:59;100975.56;;;18.30;89.84
53889;BME280;41337;51.400;-2.342;2023-09-12T05:29:00;100971.25;;;18.29;88.67
53889;BME280;41337;51.400;-2.342;2023-09-12T05:34:10;100973.19;;;18.15;89.92
53889;BME280;41337;51.400;-2.342;2023-09-12T05:39:11;100971.34;;;18.09;90.05
53889;BME280;41337;51.400;-2.342;2023-09-12T05:44:43;100986.94;;;18.06;90.53
53889;BME280;41337;51.400;-2.342;2023-09-12T05:49:46;100992.47;;;18.04;90.83
53889;BME280;41337;51.400;-2.342;2023-09-12T05:59:54;100990.44;;;18.06;91.45
53889;BME280;41337;51.400;-2.342;2023-09-12T06:04:57;100978.06;;;18.18;91.33
53889;BME280;41337;51.400;-2.342;2023-09-12T06:10:10;100985.97;;;18.38;90.47
53889;BME280;41337;51.400;-2.342;2023-09-12T06:15:23;100982.63;;;18.49;89.05
53889;BME280;41337;51.400;-2.342;2023-09-12T06:20:28;100991.00;;;18.59;88.79
53889;BME280;41337;51.400;-2.342;2023-09-12T06:25:37;100995.59;;;18.77;87.19
53889;BME280;41337;51.400;-2.342;2023-09-12T06:36:23;100994.78;;;18.77;87.41
53889;BME280;41337;51.400;-2.342;2023-09-12T06:41:34;100998.81;;;18.86;87.54
53889;BME280;41337;51.400;-2.342;2023-09-12T06:46:36;101000.63;;;18.92;86.69
53889;BME280;41337;51.400;-2.342;2023-09-12T06:51:52;101013.41;;;18.83;86.26
53889;BME280;41337;51.400;-2.342;2023-09-12T06:56:53;101010.75;;;18.77;86.61
53889;BME280;41337;51.400;-2.342;2023-09-12T07:07:57;101015.84;;;18.85;86.41
53889;BME280;41337;51.400;-2.342;2023-09-12T07:18:05;101020.16;;;18.86;86.97
53889;BME280;41337;51.400;-2.342;2023-09-12T07:23:07;101024.41;;;18.93;86.54
53889;BME280;41337;51.400;-2.342;2023-09-12T07:28:21;101020.16;;;18.86;86.38
53889;BME280;41337;51.400;-2.342;2023-09-12T07:33:22;101023.44;;;18.88;88.56
53889;BME280;41337;51.400;-2.342;2023-09-12T07:38:24;101031.53;;;18.99;87.58
53889;BME280;41337;51.400;-2.342;2023-09-12T07:43:32;101038.16;;;18.90;89.45
53889;BME280;41337;51.400;-2.342;2023-09-12T07:48:34;101034.69;;;18.90;89.90
53889;BME280;41337;51.400;-2.342;2023-09-12T07:53:40;101043.41;;;19.03;90.97
53889;BME280;41337;51.400;-2.342;2023-09-12T07:58:43;101042.16;;;19.06;91.44
53889;BME280;41337;51.400;-2.342;2023-09-12T08:03:58;101041.75;;;19.09;92.10
53889;BME280;41337;51.400;-2.342;2023-09-12T08:09:00;101040.69;;;19.10;91.66
53889;BME280;41337;51.400;-2.342;2023-09-12T08:14:11;101051.97;;;19.12;91.10
53889;BME280;41337;51.400;-2.342;2023-09-12T08:19:26;101051.97;;;19.12;91.50
53889;BME280;41337;51.400;-2.342;2023-09-12T08:24:30;101058.41;;;19.29;89.50
53889;BME280;41337;51.400;-2.342;2023-09-12T08:29:42;101059.59;;;19.33;87.88
53889;BME280;41337;51.400;-2.342;2023-09-12T08:34:54;101060.78;;;19.37;88.61
53889;BME280;41337;51.400;-2.342;2023-09-12T08:39:55;101064.03;;;19.39;89.45
53889;BME280;41337;51.400;-2.342;2023-09-12T08:45:01;101061.16;;;19.47;86.86
53889;BME280;41337;51.400;-2.342;2023-09-12T08:50:04;101067.97;;;19.37;89.14
53889;BME280;41337;51.400;-2.342;2023-09-12T08:55:07;101074.06;;;19.50;88.64
53889;BME280;41337;51.400;-2.342;2023-09-12T09:00:16;101077.69;;;19.81;83.01
53889;BME280;41337;51.400;-2.342;2023-09-12T09:05:49;101076.28;;;19.96;82.94
53889;BME280;41337;51.400;-2.342;2023-09-12T09:10:59;101081.13;;;20.06;81.03
53889;BME280;41337;51.400;-2.342;2023-09-12T09:16:17;101075.09;;;20.11;81.89
53889;BME280;41337;51.400;-2.342;2023-09-12T09:21:32;101072.94;;;20.01;81.76
53889;BME280;41337;51.400;-2.342;2023-09-12T09:26:52;101077.09;;;20.15;79.16
53889;BME280;41337;51.400;-2.342;2023-09-12T09:32:17;101078.91;;;20.39;78.15
53889;BME280;41337;51.400;-2.342;2023-09-12T09:37:19;101087.22;;;20.49;79.07
53889;BME280;41337;51.400;-2.342;2023-09-12T09:42:21;101079.97;;;20.68;77.09
53889;BME280;41337;51.400;-2.342;2023-09-12T09:47:22;101072.59;;;20.64;75.74
53889;BME280;41337;51.400;-2.342;2023-09-12T09:52:27;101077.06;;;20.70;76.67
53889;BME280;41337;51.400;-2.342;2023-09-12T09:57:36;101073.75;;;20.56;76.48
53889;BME280;41337;51.400;-2.342;2023-09-12T10:02:40;101067.75;;;20.42;75.05
53889;BME280;41337;51.400;-2.342;2023-09-12T10:08:08;101067.69;;;20.79;74.38
53889;BME280;41337;51.400;-2.342;2023-09-12T10:19:16;101056.94;;;21.09;73.13
53889;BME280;41337;51.400;-2.342;2023-09-12T10:24:40;101066.44;;;20.93;75.52
53889;BME280;41337;51.400;-2.342;2023-09-12T10:29:52;101059.00;;;20.95;73.64
53889;BME280;41337;51.400;-2.342;2023-09-12T10:34:58;101051.75;;;21.25;73.36
53889;BME280;41337;51.400;-2.342;2023-09-12T10:40:01;101056.09;;;21.38;70.95
53889;BME280;41337;51.400;-2.342;2023-09-12T10:45:06;101057.59;;;21.46;69.19
53889;BME280;41337;51.400;-2.342;2023-09-12T10:50:12;101057.72;;;21.62;69.61
53889;BME280;41337;51.400;-2.342;2023-09-12T10:55:17;101070.19;;;21.68;71.42
53889;BME280;41337;51.400;-2.342;2023-09-12T11:00:26;101062.91;;;21.22;74.14
53889;BME280;41337;51.400;-2.342;2023-09-12T11:05:34;101063.38;;;21.31;74.32
53889;BME280;41337;51.400;-2.342;2023-09-12T11:10:36;101070.25;;;21.15;75.27
53889;BME280;41337;51.400;-2.342;2023-09-12T11:16:10;101067.25;;;20.93;75.84
53889;BME280;41337;51.400;-2.342;2023-09-12T11:21:14;101070.50;;;21.25;74.61
53889;BME280;41337;51.400;-2.342;2023-09-12T11:26:20;101075.84;;;21.25;75.99
53889;BME280;41337;51.400;-2.342;2023-09-12T11:31:26;101078.53;;;21.49;73.53
53889;BME280;41337;51.400;-2.342;2023-09-12T11:36:30;101087.03;;;21.34;78.29
53889;BME280;41337;51.400;-2.342;2023-09-12T11:42:02;101077.59;;;21.31;74.70
53889;BME280;41337;51.400;-2.342;2023-09-12T11:47:10;101076.69;;;21.37;74.30
53889;BME280;41337;51.400;-2.342;2023-09-12T11:52:18;101084.72;;;21.61;74.41
53889;BME280;41337;51.400;-2.342;2023-09-12T12:08:51;101069.59;;;22.41;67.92
53889;BME280;41337;51.400;-2.342;2023-09-12T12:19:45;101072.84;;;23.45;62.58
53889;BME280;41337;51.400;-2.342;2023-09-12T12:24:54;101065.66;;;23.34;63.21
53889;BME280;41337;51.400;-2.342;2023-09-12T12:30:25;101067.50;;;23.83;61.07
53889;BME280;41337;51.400;-2.342;2023-09-12T12:35:29;101060.81;;;23.69;61.86
53889;BME280;41337;51.400;-2.342;2023-09-12T12:40:55;101061.97;;;23.73;62.33
53889;BME280;41337;51.400;-2.342;2023-09-12T12:46:13;101066.41;;;23.46;63.01
53889;BME280;41337;51.400;-2.342;2023-09-12T12:51:31;101061.84;;;23.30;63.51
53889;BME280;41337;51.400;-2.342;2023-09-12T12:57:18;101062.94;;;23.00;64.74
53889;BME280;41337;51.400;-2.342;2023-09-12T13:02:27;101064.44;;;23.08;63.83
53889;BME280;41337;51.400;-2.342;2023-09-12T13:07:30;101058.38;;;23.01;64.03
53889;BME280;41337;51.400;-2.342;2023-09-12T13:12:31;101062.50;;;22.75;65.37
53889;BME280;41337;51.400;-2.342;2023-09-12T13:17:35;101068.66;;;22.47;66.32
53889;BME280;41337;51.400;-2.342;2023-09-12T13:22:44;101066.88;;;22.53;66.31
53889;BME280;41337;51.400;-2.342;2023-09-12T13:34:17;101067.41;;;22.95;64.52
53889;BME280;41337;51.400;-2.342;2023-09-12T13:39:25;101057.25;;;23.13;65.30
53889;BME280;41337;51.400;-2.342;2023-09-12T13:45:11;101056.53;;;23.51;62.85
53889;BME280;41337;51.400;-2.342;2023-09-12T13:50:13;101056.66;;;23.78;61.70
53889;BME280;41337;51.400;-2.342;2023-09-12T13:55:16;101067.81;;;24.08;60.38
53889;BME280;41337;51.400;-2.342;2023-09-12T14:00:28;101052.78;;;24.29;59.58
53889;BME280;41337;51.400;-2.342;2023-09-12T14:05:33;101054.09;;;24.48;59.69
53889;BME280;41337;51.400;-2.342;2023-09-12T14:10:48;101070.78;;;24.29;58.37
53889;BME280;41337;51.400;-2.342;2023-09-12T14:16:10;101071.50;;;23.64;61.06
53889;BME280;41337;51.400;-2.342;2023-09-12T14:21:13;101074.25;;;23.02;63.19
53889;BME280;41337;51.400;-2.342;2023-09-12T14:26:24;101075.66;;;22.48;66.16
53889;BME280;41337;51.400;-2.342;2023-09-12T14:31:50;101078.19;;;22.03;68.01
53889;BME280;41337;51.400;-2.342;2023-09-12T14:36:55;101075.28;;;21.81;67.91
53889;BME280;41337;51.400;-2.342;2023-09-12T14:42:27;101067.72;;;21.67;67.85
53889;BME280;41337;51.400;-2.342;2023-09-12T15:05:49;101081.13;;;21.55;70.47
53889;BME280;41337;51.400;-2.342;2023-09-12T15:10:56;101092.50;;;21.39;71.14
53889;BME280;41337;51.400;-2.342;2023-09-12T15:16:17;101093.66;;;21.31;79.05
53889;BME280;41337;51.400;-2.342;2023-09-12T15:21:44;101098.34;;;21.06;78.63
53889;BME280;41337;51.400;-2.342;2023-09-12T15:26:45;101106.81;;;20.62;78.94
53889;BME280;41337;51.400;-2.342;2023-09-12T15:31:48;101102.78;;;20.16;83.69
53889;BME280;41337;51.400;-2.342;2023-09-12T15:36:49;101103.97;;;20.02;85.87
53889;BME280;41337;51.400;-2.342;2023-09-12T15:41:50;101104.13;;;20.25;82.85
53889;BME280;41337;51.400;-2.342;2023-09-12T15:46:58;101108.34;;;19.96;86.99
53889;BME280;41337;51.400;-2.342;2023-09-12T15:52:00;101101.94;;;19.79;89.80
53889;BME280;41337;51.400;-2.342;2023-09-12T15:57:00;101102.28;;;19.65;90.57
53889;BME280;41337;51.400;-2.342;2023-09-12T16:02:03;101099.16;;;19.68;92.90
53889;BME280;41337;51.400;-2.342;2023-09-12T16:07:33;101106.16;;;19.69;91.49
53889;BME280;41337;51.400;-2.342;2023-09-12T16:12:35;101093.22;;;19.66;94.81
53889;BME280;41337;51.400;-2.342;2023-09-12T16:18:01;101102.41;;;19.70;92.80
53889;BME280;41337;51.400;-2.342;2023-09-12T16:28:25;101116.94;;;19.55;90.84
53889;BME280;41337;51.400;-2.342;2023-09-12T16:33:56;101106.53;;;19.41;90.54
53889;BME280;41337;51.400;-2.342;2023-09-12T16:44:24;101114.03;;;19.01;88.81
53889;BME280;41337;51.400;-2.342;2023-09-12T16:49:43;101120.56;;;19.05;90.52
53889;BME280;41337;51.400;-2.342;2023-09-12T16:54:44;101117.91;;;19.05;92.38
53889;BME280;41337;51.400;-2.342;2023-09-12T17:06:04;101134.84;;;19.17;96.27
53889;BME280;41337;51.400;-2.342;2023-09-12T17:11:11;101124.75;;;19.19;93.22
53889;BME280;41337;51.400;-2.342;2023-09-12T17:16:34;101131.13;;;19.18;90.39
53889;BME280;41337;51.400;-2.342;2023-09-12T17:21:39;101144.13;;;19.08;95.46
53889;BME280;41337;51.400;-2.342;2023-09-12T17:26:43;101138.75;;;19.14;96.08
53889;BME280;41337;51.400;-2.342;2023-09-12T17:31:44;101155.38;;;19.16;97.07
53889;BME280;41337;51.400;-2.342;2023-09-12T17:36:44;101150.63;;;19.18;97.23
53889;BME280;41337;51.400;-2.342;2023-09-12T17:41:45;101153.53;;;19.17;96.72
53889;BME280;41337;51.400;-2.342;2023-09-12T17:46:47;101163.00;;;19.13;98.41
53889;BME280;41337;51.400;-2.342;2023-09-12T17:51:51;101166.50;;;19.07;91.16
53889;BME280;41337;51.400;-2.342;2023-09-12T17:56:55;101171.06;;;19.00;92.92
53889;BME280;41337;51.400;-2.342;2023-09-12T18:02:41;101192.47;;;18.80;89.85
53889;BME280;41337;51.400;-2.342;2023-09-12T18:07:43;101185.81;;;18.58;90.63
53889;BME280;41337;51.400;-2.342;2023-09-12T18:12:50;101200.78;;;18.39;88.61
53889;BME280;41337;51.400;-2.342;2023-09-12T18:17:53;101207.34;;;18.30;90.58
53889;BME280;41337;51.400;-2.342;2023-09-12T18:23:25;101211.03;;;18.29;89.49
53889;BME280;41337;51.400;-2.342;2023-09-12T18:34:04;101228.50;;;18.12;91.35
53889;BME280;41337;51.400;-2.342;2023-09-12T18:39:05;101240.38;;;18.09;91.39
53889;BME280;41337;51.400;-2.342;2023-09-12T18:44:07;101238.53;;;17.97;92.85
53889;BME280;41337;51.400;-2.342;2023-09-12T18:49:09;101246.53;;;17.90;90.87
53889;BME280;41337;51.400;-2.342;2023-09-12T18:54:58;101258.00;;;17.91;88.50
53889;BME280;41337;51.400;-2.342;2023-09-12T19:00:03;101272.91;;;17.72;90.58
53889;BME280;41337;51.400;-2.342;2023-09-12T19:05:04;101276.38;;;17.59;92.25
53889;BME280;41337;51.400;-2.342;2023-09-12T19:10:07;101290.06;;;17.56;88.72
53889;BME280;41337;51.400;-2.342;2023-09-12T19:15:16;101303.69;;;17.40;90.01
53889;BME280;41337;51.400;-2.342;2023-09-12T19:20:17;101305.69;;;17.25;93.29
53889;BME280;41337;51.400;-2.342;2023-09-12T19:25:25;101319.00;;;17.18;94.07
53889;BME280;41337;51.400;-2.342;2023-09-12T19:30:29;101332.47;;;17.17;91.68
53889;BME280;41337;51.400;-2.342;2023-09-12T19:35:32;101331.72;;;16.88;94.09
53889;BME280;41337;51.400;-2.342;2023-09-12T19:40:35;101337.56;;;16.77;92.70
53889;BME280;41337;51.400;-2.342;2023-09-12T19:45:37;101356.06;;;16.64;92.12
53889;BME280;41337;51.400;-2.342;2023-09-12T19:50:39;101362.41;;;16.63;92.96
53889;BME280;41337;51.400;-2.342;2023-09-12T19:55:52;101369.00;;;16.46;92.85
53889;BME280;41337;51.400;-2.342;2023-09-12T20:01:00;101382.19;;;16.39;91.86
53889;BME280;41337;51.400;-2.342;2023-09-12T20:06:08;101374.75;;;16.28;93.68
53889;BME280;41337;51.400;-2.342;2023-09-12T20:11:10;101394.78;;;16.31;93.42
53889;BME280;41337;51.400;-2.342;2023-09-12T20:16:21;101393.13;;;16.30;95.34
53889;BME280;41337;51.400;-2.342;2023-09-12T20:21:26;101394.78;;;16.31;94.20
53889;BME280;41337;51.400;-2.342;2023-09-12T20:26:34;101408.50;;;16.34;93.53
53889;BME280;41337;51.400;-2.342;2023-09-12T20:31:46;101404.00;;;16.35;95.53
53889;BME280;41337;51.400;-2.342;2023-09-12T20:36:54;101413.63;;;16.36;95.69
53889;BME280;41337;51.400;-2.342;2023-09-12T20:42:12;101418.56;;;16.39;95.04
53889;BME280;41337;51.400;-2.342;2023-09-12T20:47:19;101418.13;;;16.35;93.08
53889;BME280;41337;51.400;-2.342;2023-09-12T20:52:24;101434.06;;;16.35;94.69
53889;BME280;41337;51.400;-2.342;2023-09-12T20:57:38;101442.47;;;16.39;95.66
53889;BME280;41337;51.400;-2.342;2023-09-12T21:03:05;101441.84;;;16.37;94.98
53889;BME280;41337;51.400;-2.342;2023-09-12T21:08:07;101441.91;;;16.43;93.38
53889;BME280;41337;51.400;-2.342;2023-09-12T21:13:09;101455.56;;;16.40;94.35
53889;BME280;41337;51.400;-2.342;2023-09-12T21:19:12;101455.31;;;16.35;92.02
53889;BME280;41337;51.400;-2.342;2023-09-12T21:24:17;101459.53;;;16.30;92.77
53889;BME280;41337;51.400;-2.342;2023-09-12T21:29:25;101464.13;;;16.21;94.60
53889;BME280;41337;51.400;-2.342;2023-09-12T21:34:26;101468.56;;;16.14;93.65
53889;BME280;41337;51.400;-2.342;2023-09-12T21:39:36;101476.72;;;16.13;95.34
53889;BME280;41337;51.400;-2.342;2023-09-12T21:44:38;101484.22;;;16.09;94.53
53889;BME280;41337;51.400;-2.342;2023-09-12T21:49:39;101480.00;;;16.15;94.43
53889;BME280;41337;51.400;-2.342;2023-09-12T21:54:39;101494.84;;;16.09;95.08
53889;BME280;41337;51.400;-2.342;2023-09-12T21:59:40;101490.19;;;16.11;93.86
53889;BME280;41337;51.400;-2.342;2023-09-12T22:04:42;101491.63;;;16.14;94.84
53889;BME280;41337;51.400;-2.342;2023-09-12T22:09:43;101484.22;;;16.09;93.70
53889;BME280;41337;51.400;-2.342;2023-09-12T22:14:43;101485.88;;;16.10;92.11
53889;BME280;41337;51.400;-2.342;2023-09-12T22:19:44;101495.78;;;16.02;92.70
53889;BME280;41337;51.400;-2.342;2023-09-12T22:24:56;101505.97;;;15.98;93.19
53889;BME280;41337;51.400;-2.342;2023-09-12T22:29:57;101514.75;;;15.84;93.05
53889;BME280;41337;51.400;-2.342;2023-09-12T22:34:58;101513.66;;;15.78;93.96
53889;BME280;41337;51.400;-2.342;2023-09-12T22:39:59;101519.03;;;15.70;94.02
53889;BME280;41337;51.400;-2.342;2023-09-12T22:45:00;101521.06;;;15.68;93.73
53889;BME280;41337;51.400;-2.342;2023-09-12T22:50:04;101529.41;;;15.65;93.84
53889;BME280;41337;51.400;-2.342;2023-09-12T22:55:08;101532.06;;;15.65;93.79
53889;BME280;41337;51.400;-2.342;2023-09-12T23:00:10;101536.53;;;15.65;94.10
53889;BME280;41337;51.400;-2.342;2023-09-12T23:05:21;101538.91;;;15.60;95.25
53889;BME280;41337;51.400;-2.342;2023-09-12T23:10:27;101556.38;;;15.54;94.30
53889;BME280;41337;51.400;-2.342;2023-09-12T23:15:28;101561.34;;;15.49;89.50
53889;BME280;41337;51.400;-2.342;2023-09-12T23:20:30;101569.00;;;15.29;90.02
53889;BME280;41337;51.400;-2.342;2023-09-12T23:25:35;101582.78;;;15.25;89.80
53889;BME280;41337;51.400;-2.342;2023-09-12T23:30:38;101580.69;;;15.20;85.58
53889;BME280;41337;51.400;-2.342;2023-09-12T23:35:39;101584.59;;;15.09;84.62
53889;BME280;41337;51.400;-2.342;2023-09-12T23:40:42;101579.03;;;14.96;85.99
53889;BME280;41337;51.400;-2.342;2023-09-12T23:45:42;101591.06;;;15.07;85.17
53889;BME280;41337;51.400;-2.342;2023-09-12T23:50:47;101584.03;;;14.91;86.67
53889;BME280;41337;51.400;-2.342;2023-09-12T23:55:48;101586.59;;;14.85;86.57
